Time;durP1;ratioP1;P1;durP2;ratioP2;P2;SDS_P1;SDS_P2;PMS_P1;PMS_P2;Temp;Humidity;BMP_temperature;BMP_pressure;BME280_temperature;BME280_humidity;BME280_pressure;Samples;Min_cycle;Max_cycle;Signal;HPM_P1;HPM_P2
2023/03/11 00:00:12;;;;;;;0.47;0.47;;;;;;;12.38;100.00;97610.81;5048372;28;20691;-57
2023/03/11 00:02:39;;;;;;;0.60;0.60;;;;;;;12.34;100.00;97613.69;5027543;28;20243;-58
2023/03/11 00:05:06;;;;;;;0.50;0.50;;;;;;;12.26;100.00;97614.19;5027926;28;20209;-58
2023/03/11 00:07:33;;;;;;;0.50;0.50;;;;;;;12.25;100.00;97604.81;5031016;28;20302;-58
2023/03/11 00:10:01;;;;;;;0.90;0.90;;;;;;;12.27;100.00;97608.13;5032583;28;20205;-58
2023/03/11 00:12:28;;;;;;;0.97;0.97;;;;;;;12.19;100.00;97605.22;5034446;28;20203;-58
2023/03/11 00:14:55;;;;;;;0.50;0.50;;;;;;;12.18;100.00;97603.56;5033994;28;20642;-59
2023/03/11 00:17:21;;;;;;;0.70;0.70;;;;;;;12.21;100.00;97603.41;5032037;28;20193;-59
2023/03/11 00:19:48;;;;;;;0.40;0.40;;;;;;;12.23;100.00;97593.84;5035037;28;20197;-57
2023/03/11 00:22:15;;;;;;;0.40;0.40;;;;;;;12.13;100.00;97573.97;5033263;28;20631;-59
2023/03/11 00:24:42;;;;;;;0.47;0.47;;;;;;;12.13;100.00;97558.56;5038220;28;20200;-58
2023/03/11 00:27:10;;;;;;;0.40;0.40;;;;;;;12.12;100.00;97557.75;5036544;28;20213;-59
2023/03/11 00:29:37;;;;;;;0.50;0.50;;;;;;;11.95;100.00;97530.63;5034790;28;20201;-59
2023/03/11 00:32:03;;;;;;;0.43;0.43;;;;;;;11.95;100.00;97524.66;5026046;28;20201;-58
2023/03/11 00:34:30;;;;;;;0.60;0.60;;;;;;;11.94;100.00;97505.88;5031893;28;20202;-58
2023/03/11 00:36:57;;;;;;;0.63;0.63;;;;;;;11.90;100.00;97495.88;5031516;28;20206;-58
2023/03/11 00:39:24;;;;;;;0.60;0.60;;;;;;;11.89;100.00;97500.19;5027780;28;20563;-58
2023/03/11 00:41:55;;;;;;;0.60;0.60;;;;;;;11.83;100.00;97525.44;5029755;28;20201;-58
2023/03/11 00:44:23;;;;;;;0.40;0.40;;;;;;;11.77;100.00;97546.38;5029378;28;20202;-58
2023/03/11 00:46:50;;;;;;;0.50;0.50;;;;;;;11.80;100.00;97530.78;5031636;28;20601;-59
2023/03/11 00:49:17;;;;;;;0.60;0.60;;;;;;;11.84;100.00;97532.22;5032904;28;20197;-58
2023/03/11 00:51:44;;;;;;;0.50;0.50;;;;;;;11.83;100.00;97540.84;5033710;28;20204;-59
2023/03/11 00:54:10;;;;;;;0.57;0.57;;;;;;;11.89;100.00;97532.78;5035138;28;20229;-58
2023/03/11 00:56:37;;;;;;;0.50;0.50;;;;;;;11.94;100.00;97528.16;5030750;28;20205;-58
2023/03/11 00:59:04;;;;;;;0.60;0.60;;;;;;;11.96;100.00;97516.84;5032502;28;20197;-58
2023/03/11 01:01:32;;;;;;;0.40;0.40;;;;;;;12.02;100.00;97510.47;5039146;28;20204;-58
2023/03/11 01:03:59;;;;;;;0.50;0.50;;;;;;;12.03;100.00;97507.81;5033521;28;20198;-58
2023/03/11 01:06:26;;;;;;;0.50;0.50;;;;;;;12.09;100.00;97504.03;5013821;28;20222;-58
2023/03/11 01:08:53;;;;;;;0.60;0.60;;;;;;;12.07;100.00;97493.03;5017377;28;20632;-58
2023/03/11 01:11:19;;;;;;;0.50;0.50;;;;;;;12.13;100.00;97492.63;5016317;28;20210;-57
2023/03/11 01:13:47;;;;;;;0.40;0.40;;;;;;;12.19;100.00;97484.50;5020757;28;20208;-59
2023/03/11 01:16:13;;;;;;;0.63;0.63;;;;;;;12.27;100.00;97476.28;5025039;28;20580;-58
2023/03/11 01:18:42;;;;;;;0.47;0.47;;;;;;;12.27;100.00;97474.56;5014193;28;20252;-59
2023/03/11 01:21:08;;;;;;;0.50;0.50;;;;;;;12.15;100.00;97470.22;5027229;28;20197;-57
2023/03/11 01:23:35;;;;;;;0.50;0.50;;;;;;;12.19;100.00;97469.09;5014431;28;20662;-58
2023/03/11 01:26:02;;;;;;;0.40;0.40;;;;;;;12.04;100.00;97463.25;5026206;28;20680;-58
2023/03/11 01:28:28;;;;;;;0.50;0.50;;;;;;;11.89;100.00;97463.44;5029571;28;20234;-58
2023/03/11 01:30:55;;;;;;;0.50;0.50;;;;;;;11.98;100.00;97465.41;5019486;28;20260;-58
2023/03/11 01:33:22;;;;;;;0.50;0.50;;;;;;;11.92;100.00;97451.22;5015085;28;20588;-58
2023/03/11 01:35:50;;;;;;;0.50;0.50;;;;;;;11.93;100.00;97459.75;5031694;28;20653;-60
2023/03/11 01:38:17;;;;;;;0.40;0.40;;;;;;;11.96;100.00;97454.41;5031038;28;20201;-58
2023/03/11 01:40:47;;;;;;;0.50;0.50;;;;;;;11.91;100.00;97453.91;5036114;28;20208;-58
2023/03/11 01:43:40;;;;;;;0.60;0.60;;;;;;;11.99;100.00;97465.28;5045620;28;20250;-58
2023/03/11 01:46:15;;;;;;;0.50;0.50;;;;;;;11.93;100.00;97459.75;5032501;28;20202;-59
2023/03/11 01:48:46;;;;;;;0.50;0.50;;;;;;;11.87;100.00;97444.75;5033247;28;20703;-58
2023/03/11 01:51:17;;;;;;;0.60;0.60;;;;;;;11.95;100.00;97455.34;5034941;28;20197;-58
2023/03/11 01:53:44;;;;;;;0.40;0.40;;;;;;;11.94;100.00;97448.56;5039103;28;20744;-58
2023/03/11 01:56:11;;;;;;;0.57;0.57;;;;;;;11.82;100.00;97416.00;5035669;28;20194;-57
2023/03/11 01:58:43;;;;;;;0.40;0.40;;;;;;;12.05;100.00;97433.25;5022806;28;20263;-58
2023/03/11 02:01:11;;;;;;;0.40;0.40;;;;;;;12.08;100.00;97427.91;5036906;28;20225;-58
2023/03/11 02:03:40;;;;;;;0.67;0.67;;;;;;;11.93;100.00;97405.81;5041726;28;20215;-59
2023/03/11 02:06:11;;;;;;;0.70;0.70;;;;;;;12.06;100.00;97420.31;5035415;28;20578;-58
2023/03/11 02:08:40;;;;;;;0.60;0.60;;;;;;;12.04;100.00;97432.44;5029058;28;20205;-58
2023/03/11 02:11:10;;;;;;;0.50;0.50;;;;;;;12.10;100.00;97426.06;5034170;28;20202;-59
2023/03/11 02:13:39;;;;;;;0.40;0.40;;;;;;;12.15;100.00;97434.25;5028263;28;20259;-58
2023/03/11 02:16:07;;;;;;;0.40;0.40;;;;;;;12.13;100.00;97431.00;5034659;28;20198;-58
2023/03/11 02:18:34;;;;;;;0.40;0.40;;;;;;;12.08;100.00;97463.88;5030361;28;20202;-58
2023/03/11 02:21:10;;;;;;;0.40;0.40;;;;;;;11.84;100.00;97486.84;5037578;28;20205;-58
2023/03/11 02:23:47;;;;;;;0.50;0.50;;;;;;;11.63;100.00;97500.22;5032634;28;20197;-58
2023/03/11 02:26:20;;;;;;;0.50;0.50;;;;;;;11.30;100.00;97491.22;5031329;28;20201;-59
2023/03/11 02:28:51;;;;;;;0.60;0.60;;;;;;;11.15;100.00;97466.50;5035891;28;20225;-58
2023/03/11 02:31:19;;;;;;;0.40;0.40;;;;;;;11.09;100.00;97469.47;5033332;28;20205;-58
2023/03/11 02:33:49;;;;;;;0.60;0.60;;;;;;;11.13;100.00;97491.44;5035067;28;20201;-59
2023/03/11 02:36:36;;;;;;;0.50;0.50;;;;;;;10.80;100.00;97460.19;5029895;28;20213;-58
2023/03/11 02:39:04;;;;;;;0.50;0.50;;;;;;;10.91;100.00;97486.00;5042615;28;20193;-58
2023/03/11 02:41:32;;;;;;;0.60;0.60;;;;;;;10.89;100.00;97490.38;5029380;28;20670;-59
2023/03/11 02:44:00;;;;;;;0.50;0.50;;;;;;;10.84;100.00;97487.28;5036370;28;20208;-59
2023/03/11 02:46:27;;;;;;;0.47;0.47;;;;;;;10.79;100.00;97485.00;5033830;28;20264;-58
2023/03/11 02:48:55;;;;;;;0.60;0.60;;;;;;;10.72;100.00;97472.69;5028402;28;20209;-58
2023/03/11 02:51:22;;;;;;;0.40;0.40;;;;;;;10.77;100.00;97486.84;5034607;28;20254;-58
2023/03/11 02:53:52;;;;;;;0.50;0.50;;;;;;;10.79;100.00;97484.19;5032347;28;20250;-58
2023/03/11 02:56:19;;;;;;;0.40;0.40;;;;;;;10.86;100.00;97475.19;5032520;28;20263;-58
2023/03/11 02:58:47;;;;;;;0.40;0.40;;;;;;;10.90;100.00;97461.28;5030173;28;20206;-58
2023/03/11 03:01:15;;;;;;;0.40;0.40;;;;;;;10.95;100.00;97449.81;5030478;28;20202;-59
2023/03/11 03:03:45;;;;;;;0.43;0.43;;;;;;;11.01;100.00;97438.38;5039241;28;20263;-58
2023/03/11 03:06:11;;;;;;;0.77;0.77;;;;;;;11.10;100.00;97437.78;5033648;28;20198;-58
2023/03/11 03:08:38;;;;;;;0.40;0.40;;;;;;;11.16;100.00;97437.38;5027053;28;20213;-58
2023/03/11 03:11:05;;;;;;;0.40;0.40;;;;;;;11.20;100.00;97427.75;5024698;28;20668;-58
2023/03/11 03:13:32;;;;;;;0.40;0.40;;;;;;;11.20;100.00;97410.63;5028559;28;20653;-58
2023/03/11 03:16:00;;;;;;;0.50;0.50;;;;;;;11.21;100.00;97403.78;5014400;28;20202;-58
2023/03/11 03:18:28;;;;;;;0.50;0.50;;;;;;;11.12;100.00;97400.03;5013021;28;20194;-58
2023/03/11 03:20:55;;;;;;;0.50;0.50;;;;;;;11.13;100.00;97411.94;5018255;28;20201;-58
2023/03/11 03:23:22;;;;;;;0.57;0.57;;;;;;;11.10;100.00;97416.44;5012517;28;20208;-58
2023/03/11 03:25:49;;;;;;;0.53;0.53;;;;;;;11.12;100.00;97415.41;5020749;28;20263;-58
2023/03/11 03:28:16;;;;;;;0.50;0.50;;;;;;;11.16;100.00;97401.50;5013281;28;20229;-58
2023/03/11 03:30:43;;;;;;;0.40;0.40;;;;;;;11.19;100.00;97397.91;5011129;28;20206;-59
2023/03/11 03:33:10;;;;;;;0.70;0.70;;;;;;;11.22;100.00;97385.72;5031841;28;20262;-58
2023/03/11 03:35:41;;;;;;;0.50;0.50;;;;;;;11.22;100.00;97370.31;5035922;28;20198;-58
2023/03/11 03:38:08;;;;;;;0.50;0.50;;;;;;;11.40;100.00;97387.09;5027921;28;20251;-59
2023/03/11 03:40:35;;;;;;;0.50;0.50;;;;;;;11.32;100.00;97394.44;5035666;28;20197;-58
2023/03/11 03:43:01;;;;;;;0.50;0.50;;;;;;;11.35;100.00;97401.94;5033946;28;20619;-58
2023/03/11 03:45:28;;;;;;;0.70;0.70;;;;;;;11.32;100.00;97391.88;5026912;28;20757;-58
2023/03/11 03:47:55;;;;;;;0.50;0.50;;;;;;;11.23;100.00;97384.78;5026071;28;20312;-58
2023/03/11 03:50:22;;;;;;;0.47;0.47;;;;;;;11.35;100.00;97401.13;5027413;28;21510;-58
2023/03/11 03:52:51;;;;;;;0.60;0.60;;;;;;;11.39;100.00;97407.69;5037016;28;20201;-59
2023/03/11 03:55:17;;;;;;;0.50;0.50;;;;;;;11.38;100.00;97412.00;5036358;28;20198;-58
2023/03/11 03:57:44;;;;;;;0.40;0.40;;;;;;;11.36;100.00;97423.28;5036502;28;20741;-58
2023/03/11 04:00:12;;;;;;;0.43;0.43;;;;;;;11.26;100.00;97427.38;5033464;28;20201;-59
2023/03/11 04:02:39;;;;;;;0.50;0.50;;;;;;;11.22;100.00;97426.75;5024618;28;20208;-58
2023/03/11 04:05:07;;;;;;;0.50;0.50;;;;;;;11.28;100.00;97446.03;5032831;28;20205;-59
2023/03/11 04:07:35;;;;;;;0.50;0.50;;;;;;;11.35;100.00;97445.56;5033761;28;20213;-59
2023/03/11 04:10:04;;;;;;;0.50;0.50;;;;;;;11.37;100.00;97451.38;5034261;28;20648;-59
2023/03/11 04:12:30;;;;;;;0.53;0.53;;;;;;;11.33;100.00;97465.38;5024738;28;20411;-59
2023/03/11 04:14:57;;;;;;;0.60;0.60;;;;;;;11.29;100.00;97470.78;5017387;28;20255;-59
2023/03/11 04:17:24;;;;;;;0.50;0.50;;;;;;;11.28;100.00;97495.59;5012859;28;20202;-59
2023/03/11 04:19:51;;;;;;;0.50;0.50;;;;;;;11.27;100.00;97506.78;5010757;28;20221;-59
2023/03/11 04:22:17;;;;;;;0.53;0.53;;;;;;;11.27;100.00;97521.34;5022669;28;20708;-59
2023/03/11 04:24:44;;;;;;;0.50;0.50;;;;;;;11.20;100.00;97510.66;5011685;28;20670;-58
2023/03/11 04:27:12;;;;;;;0.50;0.50;;;;;;;11.17;100.00;97521.09;5017089;28;20279;-59
2023/03/11 04:29:39;;;;;;;0.50;0.50;;;;;;;11.14;100.00;97516.16;5032942;28;20631;-59
2023/03/11 04:32:07;;;;;;;0.50;0.50;;;;;;;11.12;100.00;97515.41;5032829;28;20201;-58
2023/03/11 04:34:33;;;;;;;0.70;0.70;;;;;;;11.18;100.00;97514.25;5042611;28;20326;-59
2023/03/11 04:37:00;;;;;;;0.40;0.40;;;;;;;11.16;100.00;97511.75;5042503;28;20201;-58
2023/03/11 04:39:27;;;;;;;0.60;0.60;;;;;;;11.16;100.00;97516.88;5046757;28;20600;-58
2023/03/11 04:41:54;;;;;;;0.50;0.50;;;;;;;11.17;100.00;97521.09;5037991;28;20205;-59
2023/03/11 04:44:22;;;;;;;0.60;0.60;;;;;;;11.18;100.00;97521.94;5045678;28;20844;-59
2023/03/11 04:46:49;;;;;;;0.50;0.50;;;;;;;11.18;100.00;97530.41;5031998;28;20206;-58
2023/03/11 04:49:15;;;;;;;0.60;0.60;;;;;;;11.20;100.00;97526.03;5035471;28;20202;-58
2023/03/11 04:51:42;;;;;;;1.00;1.00;;;;;;;11.22;100.00;97513.94;5038881;28;20193;-59
2023/03/11 04:54:09;;;;;;;0.50;0.50;;;;;;;11.23;100.00;97514.75;5035682;28;20274;-58
2023/03/11 04:56:36;;;;;;;0.50;0.50;;;;;;;11.25;100.00;97512.91;5035949;28;20204;-59
2023/03/11 04:59:03;;;;;;;0.50;0.50;;;;;;;11.27;100.00;97526.47;5041237;28;20664;-58
2023/03/11 05:01:31;;;;;;;0.50;0.50;;;;;;;11.22;100.00;97511.38;5039428;28;20692;-59
2023/03/11 05:03:58;;;;;;;0.57;0.57;;;;;;;11.33;100.00;97521.78;5033883;28;20205;-58
2023/03/11 05:06:24;;;;;;;0.50;0.50;;;;;;;11.35;100.00;97522.50;5033746;28;20207;-59
2023/03/11 05:08:51;;;;;;;0.43;0.43;;;;;;;11.24;100.00;97509.56;5021468;28;20218;-58
2023/03/11 05:11:18;;;;;;;0.50;0.50;;;;;;;11.36;100.00;97531.84;5026777;28;20221;-58
2023/03/11 05:13:45;;;;;;;0.50;0.50;;;;;;;11.38;100.00;97532.56;5031601;28;20689;-58
2023/03/11 05:16:12;;;;;;;1.53;1.53;;;;;;;11.40;100.00;97535.06;5014290;28;20678;-59
2023/03/11 05:18:40;;;;;;;0.50;0.50;;;;;;;11.46;100.00;97545.75;5016214;28;20244;-58
2023/03/11 05:21:07;;;;;;;0.80;0.80;;;;;;;11.26;100.00;97520.53;5016161;28;20202;-58
2023/03/11 05:23:33;;;;;;;0.60;0.60;;;;;;;11.23;100.00;97522.47;5015461;28;20213;-58
2023/03/11 05:26:00;;;;;;;0.60;0.60;;;;;;;11.27;100.00;97522.19;5015913;28;20274;-58
2023/03/11 05:28:27;;;;;;;0.60;0.60;;;;;;;11.29;100.00;97530.59;5026379;28;20253;-59
2023/03/11 05:30:54;;;;;;;0.40;0.40;;;;;;;11.32;100.00;97534.69;5028709;28;20630;-58
2023/03/11 05:33:20;;;;;;;0.50;0.50;;;;;;;11.34;100.00;97528.53;5034932;28;20255;-59
2023/03/11 05:35:50;;;;;;;0.50;0.50;;;;;;;11.39;100.00;97536.78;5038224;28;20201;-59
2023/03/11 05:38:17;;;;;;;0.40;0.40;;;;;;;11.46;100.00;97537.22;5033302;28;20204;-59
2023/03/11 05:40:44;;;;;;;0.60;0.60;;;;;;;11.52;100.00;97537.66;5031748;28;20201;-59
2023/03/11 05:43:11;;;;;;;0.50;0.50;;;;;;;11.59;100.00;97544.06;5031028;28;20198;-60
2023/03/11 05:45:38;;;;;;;0.60;0.60;;;;;;;11.64;100.00;97535.22;5026042;28;20209;-58
2023/03/11 05:48:04;;;;;;;0.50;0.50;;;;;;;11.70;100.00;97538.25;5030661;28;20929;-58
2023/03/11 05:50:31;;;;;;;0.30;0.30;;;;;;;11.74;100.00;97538.88;5030683;28;20205;-59
2023/03/11 05:52:59;;;;;;;0.40;0.40;;;;;;;11.79;100.00;97534.28;5040818;28;20201;-59
2023/03/11 05:55:26;;;;;;;0.40;0.40;;;;;;;11.83;100.00;97522.88;5031285;28;20265;-59
2023/03/11 05:57:53;;;;;;;0.43;0.43;;;;;;;11.78;100.00;97502.66;5032955;28;20602;-63
2023/03/11 06:00:21;;;;;;;0.50;0.50;;;;;;;11.88;100.00;97528.56;5029187;28;20251;-63
2023/03/11 06:02:48;;;;;;;0.60;0.60;;;;;;;11.89;100.00;97528.44;5037217;28;20201;-63
2023/03/11 06:05:15;;;;;;;0.57;0.57;;;;;;;11.85;100.00;97518.47;5026082;28;20210;-70
2023/03/11 06:07:41;;;;;;;0.83;0.83;;;;;;;11.92;100.00;97530.81;5035932;28;20216;-71
2023/03/11 06:10:11;;;;;;;0.50;0.50;;;;;;;11.94;100.00;97525.59;5033275;28;20204;-72
2023/03/11 06:12:38;;;;;;;0.57;0.57;;;;;;;11.95;100.00;97510.09;5030448;28;20209;-63
2023/03/11 06:15:06;;;;;;;0.53;0.53;;;;;;;12.06;100.00;97517.06;5035316;28;20722;-63
2023/03/11 06:17:33;;;;;;;0.50;0.50;;;;;;;12.14;100.00;97509.69;5030229;28;20585;-63
2023/03/11 06:20:00;;;;;;;0.50;0.50;;;;;;;11.99;100.00;97459.31;5028124;28;20209;-63
2023/03/11 06:22:27;;;;;;;0.50;0.50;;;;;;;12.39;100.00;97494.28;5021708;28;20289;-63
2023/03/11 06:24:54;;;;;;;0.70;0.70;;;;;;;12.49;100.00;97504.75;5024937;28;20216;-62
2023/03/11 06:27:22;;;;;;;0.40;0.40;;;;;;;12.63;100.00;97502.88;5030785;28;20205;-62
2023/03/11 06:29:52;;;;;;;0.53;0.53;;;;;;;12.80;100.00;97483.72;5030788;28;20201;-62
2023/03/11 06:32:19;;;;;;;0.90;0.90;;;;;;;12.83;100.00;97477.53;5035784;28;20193;-62
2023/03/11 06:34:50;;;;;;;0.40;0.40;;;;;;;12.96;100.00;97478.31;5035308;28;20201;-62
2023/03/11 06:37:17;;;;;;;0.50;0.50;;;;;;;13.10;100.00;97489.31;5028446;28;20228;-62
2023/03/11 06:39:44;;;;;;;0.40;0.40;;;;;;;13.19;100.00;97492.97;5051859;28;20660;-61
2023/03/11 06:42:11;;;;;;;0.50;0.50;;;;;;;13.26;100.00;97491.63;5035313;28;20197;-60
2023/03/11 06:44:39;;;;;;;0.40;0.40;;;;;;;13.33;100.00;97492.84;5051535;28;20196;-61
2023/03/11 06:47:06;;;;;;;0.60;0.60;;;;;;;13.36;100.00;97490.03;5047667;28;20277;-61
2023/03/11 06:49:33;;;;;;;0.43;0.43;;;;;;;13.33;100.00;97474.81;5042411;28;20212;-61
2023/03/11 06:52:00;;;;;;;0.60;0.60;;;;;;;13.34;100.00;97484.19;5036357;28;20251;-61
2023/03/11 06:54:26;;;;;;;0.50;0.50;;;;;;;13.39;100.00;97497.53;5050267;28;20675;-62
2023/03/11 06:56:53;;;;;;;0.50;0.50;;;;;;;13.48;100.00;97493.47;5033243;28;20395;-62
2023/03/11 06:59:21;;;;;;;0.50;0.50;;;;;;;13.50;100.00;97500.19;5028819;28;20287;-63
2023/03/11 07:01:49;;;;;;;0.40;0.40;;;;;;;13.56;100.00;97504.88;5029150;28;20596;-63
2023/03/11 07:04:16;;;;;;;0.57;0.57;;;;;;;13.58;100.00;97505.59;5028890;28;20202;-63
2023/03/11 07:06:43;;;;;;;0.60;0.60;;;;;;;13.59;100.00;97493.53;5033721;28;20570;-62
2023/03/11 07:09:10;;;;;;;0.47;0.47;;;;;;;13.63;100.00;97498.34;5026047;28;20287;-62
2023/03/11 07:11:37;;;;;;;0.50;0.50;;;;;;;13.61;100.00;97504.53;5031641;28;20774;-63
2023/03/11 07:14:04;;;;;;;0.40;0.40;;;;;;;13.66;100.00;97505.88;5023655;28;20206;-62
2023/03/11 07:16:30;;;;;;;0.50;0.50;;;;;;;13.71;100.00;97502.09;5031660;28;20608;-63
2023/03/11 07:19:02;;;;;;;0.60;0.60;;;;;;;13.78;100.00;97493.84;5030677;28;20201;-62
2023/03/11 07:21:30;;;;;;;0.70;0.70;;;;;;;13.82;100.00;97494.44;5027170;28;20598;-63
2023/03/11 07:23:58;;;;;;;0.50;0.50;;;;;;;13.87;100.00;97498.31;5023596;28;20207;-62
2023/03/11 07:26:26;;;;;;;0.60;0.60;;;;;;;13.92;100.00;97495.41;5013581;28;20206;-63
2023/03/11 07:28:55;;;;;;;0.50;0.50;;;;;;;14.11;100.00;97495.69;5022208;28;20298;-62
2023/03/11 07:31:24;;;;;;;0.43;0.43;;;;;;;14.26;100.00;97483.38;5030764;28;20554;-62
2023/03/11 07:33:51;;;;;;;0.40;0.40;;;;;;;14.53;100.00;97492.47;5044624;28;20271;-62
2023/03/11 07:36:22;;;;;;;0.60;0.60;;;;;;;14.76;100.00;97482.16;5025720;28;20206;-62
2023/03/11 07:38:57;;;;;;;0.50;0.50;;;;;;;14.86;100.00;97483.09;5028752;28;20202;-62
2023/03/11 07:41:24;;;;;;;0.40;0.40;;;;;;;15.07;100.00;97481.38;5044011;28;20218;-62
2023/03/11 07:43:54;;;;;;;0.63;0.63;;;;;;;15.26;100.00;97476.41;5035419;28;20220;-63
2023/03/11 07:46:21;;;;;;;0.40;0.40;;;;;;;15.36;100.00;97467.00;5033887;28;20351;-62
2023/03/11 07:48:49;;;;;;;0.40;0.40;;;;;;;15.52;99.19;97477.75;5042433;28;20274;-63
2023/03/11 07:51:19;;;;;;;0.40;0.40;;;;;;;15.72;98.13;97489.91;5035052;28;20205;-62
2023/03/11 07:53:47;;;;;;;0.60;0.60;;;;;;;15.92;96.42;97479.69;5034633;28;20574;-62
2023/03/11 07:56:16;;;;;;;0.50;0.50;;;;;;;15.99;95.08;97471.31;5025738;28;20204;-62
2023/03/11 07:58:43;;;;;;;0.53;0.53;;;;;;;16.00;94.46;97488.44;5037301;28;20279;-63
2023/03/11 08:01:14;;;;;;;0.50;0.50;;;;;;;16.08;94.93;97490.41;5029347;28;20197;-62
2023/03/11 08:03:42;;;;;;;0.40;0.40;;;;;;;16.13;93.55;97490.84;5026238;28;20201;-62
2023/03/11 08:06:13;;;;;;;0.50;0.50;;;;;;;16.10;91.91;97479.00;5023800;28;20665;-63
2023/03/11 08:08:41;;;;;;;0.47;0.47;;;;;;;16.24;92.46;97477.84;5020791;28;20307;-62
2023/03/11 08:11:08;;;;;;;0.50;0.50;;;;;;;16.44;93.74;97471.84;5020971;28;20686;-63
2023/03/11 08:13:34;;;;;;;0.60;0.60;;;;;;;16.80;92.12;97468.72;5024671;28;20218;-62
2023/03/11 08:16:03;;;;;;;0.60;0.60;;;;;;;17.11;86.81;97466.06;5024694;28;20565;-63
2023/03/11 08:18:30;;;;;;;0.50;0.50;;;;;;;17.33;85.82;97468.41;5023586;28;20202;-62
2023/03/11 08:20:57;;;;;;;0.40;0.40;;;;;;;17.61;87.22;97472.81;5022458;28;20201;-63
2023/03/11 08:23:24;;;;;;;0.63;0.63;;;;;;;17.76;79.88;97468.84;5026549;28;20584;-62
2023/03/11 08:25:52;;;;;;;0.50;0.50;;;;;;;17.78;79.32;97466.94;5024487;28;20456;-59
2023/03/11 08:28:19;;;;;;;0.30;0.30;;;;;;;17.72;78.58;97479.63;5028282;28;20449;-59
2023/03/11 08:30:45;;;;;;;0.50;0.50;;;;;;;17.79;78.67;97478.94;5030479;28;20224;-59
2023/03/11 08:33:12;;;;;;;0.60;0.60;;;;;;;17.90;77.29;97483.16;5037671;28;20270;-60
2023/03/11 08:35:39;;;;;;;0.50;0.50;;;;;;;17.93;77.89;97471.72;5029213;28;20206;-60
2023/03/11 08:38:06;;;;;;;0.50;0.50;;;;;;;18.08;77.03;97481.50;5029017;28;20197;-59
2023/03/11 08:40:32;;;;;;;0.40;0.40;;;;;;;17.96;74.56;97486.97;5029161;28;20205;-59
2023/03/11 08:43:01;;;;;;;0.50;0.50;;;;;;;17.94;75.38;97475.91;5035342;28;20224;-59
2023/03/11 08:45:27;;;;;;;0.50;0.50;;;;;;;17.92;77.01;97476.06;5050411;28;20208;-59
2023/03/11 08:47:54;;;;;;;0.30;0.30;;;;;;;17.97;75.68;97475.63;5050350;28;20205;-59
2023/03/11 08:50:21;;;;;;;0.60;0.60;;;;;;;18.02;77.39;97476.06;5050154;28;20701;-60
2023/03/11 08:52:48;;;;;;;0.60;0.60;;;;;;;18.08;76.41;97478.09;5037964;28;20201;-59
2023/03/11 08:55:22;;;;;;;0.50;0.50;;;;;;;18.07;75.43;97473.84;5038107;28;20213;-59
2023/03/11 08:57:49;;;;;;;0.50;0.50;;;;;;;17.94;73.02;97468.97;5027705;28;20206;-59
2023/03/11 09:00:18;;;;;;;0.50;0.50;;;;;;;17.89;74.40;97473.75;5026667;28;20246;-59
2023/03/11 09:02:46;;;;;;;0.50;0.50;;;;;;;17.88;75.20;97466.09;5032285;28;20630;-59
2023/03/11 09:05:14;;;;;;;0.40;0.40;;;;;;;17.78;75.14;97466.94;5035533;28;20554;-60
2023/03/11 09:07:41;;;;;;;0.40;0.40;;;;;;;17.79;77.26;97460.00;5028706;28;20202;-59
2023/03/11 09:10:11;;;;;;;0.70;0.70;;;;;;;17.79;75.36;97460.81;5034689;28;20271;-59
2023/03/11 09:12:38;;;;;;;0.40;0.40;;;;;;;17.88;75.84;97455.75;5029903;28;20647;-59
2023/03/11 09:15:05;;;;;;;0.40;0.40;;;;;;;17.93;76.02;97448.38;5047416;28;20207;-60
2023/03/11 09:17:33;;;;;;;0.50;0.50;;;;;;;18.07;76.88;97440.13;5041169;28;20232;-59
2023/03/11 09:20:00;;;;;;;0.30;0.30;;;;;;;18.00;74.43;97441.66;5033842;28;20219;-59
2023/03/11 09:22:28;;;;;;;0.40;0.40;;;;;;;18.06;75.71;97433.34;5034246;28;20205;-59
2023/03/11 09:24:55;;;;;;;1.10;1.10;;;;;;;18.01;77.19;97428.56;5047782;28;20200;-60
2023/03/11 09:27:21;;;;;;;0.67;0.67;;;;;;;17.90;75.67;97427.91;5053554;28;20694;-59
2023/03/11 09:29:48;;;;;;;0.30;0.30;;;;;;;17.67;75.18;97428.19;5040719;28;20261;-59
2023/03/11 09:32:15;;;;;;;0.50;0.50;;;;;;;17.69;76.04;97417.72;5033655;28;20205;-59
2023/03/11 09:34:43;;;;;;;1.73;0.87;;;;;;;17.71;75.63;97428.75;5033656;28;20197;-59
2023/03/11 09:37:10;;;;;;;0.60;0.60;;;;;;;17.80;75.83;97423.53;5033306;28;20206;-60
2023/03/11 09:39:37;;;;;;;0.50;0.50;;;;;;;17.93;75.97;97412.09;5033770;28;20205;-60
2023/03/11 09:42:17;;;;;;;0.50;0.50;;;;;;;17.93;76.00;97406.91;5033561;28;20197;-59
2023/03/11 09:44:51;;;;;;;0.50;0.50;;;;;;;18.04;76.58;97409.31;5039111;28;20212;-59
2023/03/11 09:47:28;;;;;;;0.40;0.40;;;;;;;18.18;77.38;97409.69;5052996;28;20196;-59
2023/03/11 09:50:18;;;;;;;0.30;0.30;;;;;;;18.29;73.32;97412.09;5052966;28;20223;-59
2023/03/11 09:52:51;;;;;;;0.50;0.50;;;;;;;18.21;72.80;97413.78;5021686;28;20686;-59
2023/03/11 09:55:30;;;;;;;0.40;0.40;;;;;;;18.15;72.11;97414.34;5030049;28;20204;-59
2023/03/11 09:57:58;;;;;;;0.50;0.50;;;;;;;18.06;71.24;97418.56;5033206;28;20198;-59
2023/03/11 10:00:26;;;;;;;0.50;0.50;;;;;;;18.16;69.68;97413.34;5032875;28;20215;-59
2023/03/11 10:02:52;;;;;;;0.40;0.40;;;;;;;18.45;72.78;97411.47;5021120;28;20502;-61
2023/03/11 10:05:25;;;;;;;0.40;0.40;;;;;;;18.26;67.82;97362.28;5024657;28;20197;-61
2023/03/11 10:07:58;;;;;;;0.40;0.40;;;;;;;18.54;67.50;97402.06;5030599;28;20669;-61
2023/03/11 10:10:28;;;;;;;0.40;0.40;;;;;;;18.49;67.08;97410.22;5024984;28;20293;-61
2023/03/11 10:13:03;;;;;;;0.50;0.50;;;;;;;18.46;68.41;97410.53;5025467;28;20207;-62
2023/03/11 10:15:43;;;;;;;0.60;0.60;;;;;;;18.43;68.38;97400.44;5031696;28;20628;-62
2023/03/11 10:18:28;;;;;;;0.83;0.83;;;;;;;18.49;66.91;97407.63;5024583;28;20241;-61
2023/03/11 10:21:01;;;;;;;0.57;0.57;;;;;;;18.55;66.28;97404.50;5026715;28;20203;-62
2023/03/11 10:23:38;;;;;;;0.50;0.50;;;;;;;18.61;67.37;97409.09;5026505;28;20204;-61
2023/03/11 10:26:13;;;;;;;0.50;0.50;;;;;;;18.76;69.80;97412.03;5030569;28;20365;-61
2023/03/11 10:28:45;;;;;;;0.67;0.67;;;;;;;18.98;65.29;97416.00;5027517;28;20235;-61
2023/03/11 10:31:20;;;;;;;0.47;0.47;;;;;;;19.29;66.73;97404.28;5026140;28;20199;-61
2023/03/11 10:33:52;;;;;;;0.50;0.50;;;;;;;19.45;64.54;97407.06;5021511;28;20213;-61
2023/03/11 10:36:23;;;;;;;0.43;0.43;;;;;;;19.58;63.78;97407.50;5025981;28;20201;-61
2023/03/11 10:38:52;;;;;;;0.40;0.40;;;;;;;19.67;62.32;97404.00;5028484;28;20286;-61
2023/03/11 10:41:24;;;;;;;0.50;0.50;;;;;;;19.74;60.78;97397.22;5022220;28;20278;-61
2023/03/11 10:43:57;;;;;;;0.47;0.47;;;;;;;19.85;60.62;97399.56;5026036;28;20407;-62
2023/03/11 10:46:28;;;;;;;0.50;0.50;;;;;;;19.97;58.91;97388.94;5021019;28;20213;-61
2023/03/11 10:48:55;;;;;;;0.50;0.50;;;;;;;19.98;58.66;97369.75;5029302;28;20207;-61
2023/03/11 10:51:25;;;;;;;0.40;0.40;;;;;;;20.18;59.47;97381.56;5035060;28;20227;-61
2023/03/11 10:53:54;;;;;;;0.43;0.43;;;;;;;20.21;56.89;97386.44;5033072;28;20235;-62
2023/03/11 10:56:30;;;;;;;0.30;0.30;;;;;;;20.40;57.15;97386.25;5020621;28;20266;-61
2023/03/11 10:58:57;;;;;;;0.43;0.43;;;;;;;20.27;55.62;97368.47;5028785;28;20681;-61
2023/03/11 11:01:24;;;;;;;0.40;0.40;;;;;;;20.34;54.68;97379.06;5032736;28;20196;-61
2023/03/11 11:03:54;;;;;;;1.20;0.60;;;;;;;20.31;55.98;97372.41;5026749;28;20593;-61
2023/03/11 11:06:25;;;;;;;0.60;0.60;;;;;;;20.39;55.32;97363.78;5023484;28;20208;-61
2023/03/11 11:09:05;;;;;;;0.40;0.40;;;;;;;20.33;52.20;97359.22;5021326;28;20217;-62
2023/03/11 11:11:34;;;;;;;0.40;0.40;;;;;;;20.28;53.58;97362.31;5028896;28;20205;-61
2023/03/11 11:14:01;;;;;;;0.47;0.47;;;;;;;20.33;55.98;97361.81;5028614;28;20632;-61
2023/03/11 11:16:29;;;;;;;0.50;0.50;;;;;;;20.38;54.89;97351.75;5036125;28;20195;-61
2023/03/11 11:19:02;;;;;;;0.30;0.30;;;;;;;20.40;52.57;97353.22;5034463;28;20204;-61
2023/03/11 11:21:33;;;;;;;0.50;0.50;;;;;;;20.51;53.73;97357.34;5027047;28;20265;-62
2023/03/11 11:24:14;;;;;;;0.40;0.40;;;;;;;20.66;53.65;97362.75;5027637;28;20201;-62
2023/03/11 11:26:41;;;;;;;0.40;0.40;;;;;;;20.65;50.57;97358.50;5024619;28;20200;-62
2023/03/11 11:29:14;;;;;;;0.40;0.40;;;;;;;20.59;50.17;97341.72;5033712;28;20242;-61
2023/03/11 11:31:43;;;;;;;0.40;0.40;;;;;;;20.66;49.44;97339.31;5042562;28;20572;-61